Ida Grove, Iowa
Current Conditions -  °F | °C
As of 12:15 PM on Thursday 30 Oct 2014 (Local Time) from KSLB Reporting Station
Clear Clear  
Wind Chill: 54°   Ceiling: Unl
Heat Index: 54°   Visibility: 10mi
Dew Point: 36°   Wind: 13mph
Humidity: 51%   Direction: 320°NW
Pressure: 30.05"   Gusts: 18mph
Location:  42.34°N, 95.47°W
Report Text: KSLB 301715Z AUTO 32011G16KT 10SM CLR 12/02 A3005 RMK AO2
Loading
Personal Weather Stations






























Interactive Weather Map
Tropical Storm Tracking
New forecast layout! Learn more

10-Day Weather Forecast

Advertisements
Track Severe Weather on mobile